sensor_id;sensor_type;location;lat;lon;timestamp;temperature;humidity
9466;DHT22;4771;48.726;9.006;2023-03-14T00:01:38;9.90;99.90
9466;DHT22;4771;48.726;9.006;2023-03-14T00:04:05;9.90;99.90
9466;DHT22;4771;48.726;9.006;2023-03-14T00:06:31;9.90;99.90
9466;DHT22;4771;48.726;9.006;2023-03-14T00:08:58;9.90;99.90
9466;DHT22;4771;48.726;9.006;2023-03-14T00:11:25;9.90;99.90
9466;DHT22;4771;48.726;9.006;2023-03-14T00:13:52;9.80;99.90
9466;DHT22;4771;48.726;9.006;2023-03-14T00:16:20;9.80;99.90
9466;DHT22;4771;48.726;9.006;2023-03-14T00:18:48;9.70;99.90
9466;DHT22;4771;48.726;9.006;2023-03-14T00:21:15;9.80;99.90
9466;DHT22;4771;48.726;9.006;2023-03-14T00:23:42;9.80;99.90
9466;DHT22;4771;48.726;9.006;2023-03-14T00:26:11;9.80;99.90
9466;DHT22;4771;48.726;9.006;2023-03-14T00:28:39;9.80;99.90
9466;DHT22;4771;48.726;9.006;2023-03-14T00:31:08;9.80;99.90
9466;DHT22;4771;48.726;9.006;2023-03-14T00:33:35;9.80;99.90
9466;DHT22;4771;48.726;9.006;2023-03-14T00:36:05;9.80;99.90
9466;DHT22;4771;48.726;9.006;2023-03-14T00:38:35;9.80;99.90
9466;DHT22;4771;48.726;9.006;2023-03-14T00:41:03;9.80;99.90
9466;DHT22;4771;48.726;9.006;2023-03-14T00:43:30;9.80;99.90
9466;DHT22;4771;48.726;9.006;2023-03-14T00:45:57;9.90;99.90
9466;DHT22;4771;48.726;9.006;2023-03-14T00:48:24;9.90;99.90
9466;DHT22;4771;48.726;9.006;2023-03-14T00:50:51;9.90;99.90
9466;DHT22;4771;48.726;9.006;2023-03-14T00:53:19;9.90;99.90
9466;DHT22;4771;48.726;9.006;2023-03-14T00:55:46;9.90;99.90
9466;DHT22;4771;48.726;9.006;2023-03-14T00:58:14;9.90;99.90
9466;DHT22;4771;48.726;9.006;2023-03-14T01:00:42;9.90;99.90
9466;DHT22;4771;48.726;9.006;2023-03-14T01:03:10;10.00;99.90
9466;DHT22;4771;48.726;9.006;2023-03-14T01:05:37;10.00;99.90
9466;DHT22;4771;48.726;9.006;2023-03-14T01:08:05;10.00;99.90
9466;DHT22;4771;48.726;9.006;2023-03-14T01:10:34;10.00;99.90
9466;DHT22;4771;48.726;9.006;2023-03-14T01:13:01;10.00;99.90
9466;DHT22;4771;48.726;9.006;2023-03-14T01:15:27;10.00;99.90
9466;DHT22;4771;48.726;9.006;2023-03-14T01:17:54;10.00;99.90
9466;DHT22;4771;48.726;9.006;2023-03-14T01:20:21;10.00;99.90
9466;DHT22;4771;48.726;9.006;2023-03-14T01:22:48;10.10;99.90
9466;DHT22;4771;48.726;9.006;2023-03-14T01:25:16;10.10;99.90
9466;DHT22;4771;48.726;9.006;2023-03-14T01:27:44;10.10;99.90
9466;DHT22;4771;48.726;9.006;2023-03-14T01:30:12;10.10;99.90
9466;DHT22;4771;48.726;9.006;2023-03-14T01:32:39;10.10;99.90
9466;DHT22;4771;48.726;9.006;2023-03-14T01:35:07;10.10;99.90
9466;DHT22;4771;48.726;9.006;2023-03-14T01:37:34;10.00;99.90
9466;DHT22;4771;48.726;9.006;2023-03-14T01:40:01;10.00;99.90
9466;DHT22;4771;48.726;9.006;2023-03-14T01:42:29;10.10;99.90
9466;DHT22;4771;48.726;9.006;2023-03-14T01:44:59;10.00;99.90
9466;DHT22;4771;48.726;9.006;2023-03-14T01:47:26;10.10;99.90
9466;DHT22;4771;48.726;9.006;2023-03-14T01:49:56;10.00;99.90
9466;DHT22;4771;48.726;9.006;2023-03-14T01:52:26;10.00;99.90
9466;DHT22;4771;48.726;9.006;2023-03-14T01:54:57;10.00;99.90
9466;DHT22;4771;48.726;9.006;2023-03-14T01:57:29;9.90;99.90
9466;DHT22;4771;48.726;9.006;2023-03-14T02:00:03;9.90;99.90
9466;DHT22;4771;48.726;9.006;2023-03-14T02:02:34;9.80;99.90
9466;DHT22;4771;48.726;9.006;2023-03-14T02:05:03;9.90;99.90
9466;DHT22;4771;48.726;9.006;2023-03-14T02:07:35;9.70;99.90
9466;DHT22;4771;48.726;9.006;2023-03-14T02:10:04;9.80;99.90
9466;DHT22;4771;48.726;9.006;2023-03-14T02:12:32;9.80;99.90
9466;DHT22;4771;48.726;9.006;2023-03-14T02:15:01;9.80;99.90
9466;DHT22;4771;48.726;9.006;2023-03-14T02:17:29;9.80;99.90
9466;DHT22;4771;48.726;9.006;2023-03-14T02:20:11;10.00;99.90
9466;DHT22;4771;48.726;9.006;2023-03-14T02:22:42;9.80;99.90
9466;DHT22;4771;48.726;9.006;2023-03-14T02:25:12;9.80;99.90
9466;DHT22;4771;48.726;9.006;2023-03-14T02:27:43;9.80;99.90
9466;DHT22;4771;48.726;9.006;2023-03-14T02:30:13;9.90;99.90
9466;DHT22;4771;48.726;9.006;2023-03-14T02:32:43;9.80;99.90
9466;DHT22;4771;48.726;9.006;2023-03-14T02:35:13;9.80;99.90
9466;DHT22;4771;48.726;9.006;2023-03-14T02:37:43;9.80;99.90
9466;DHT22;4771;48.726;9.006;2023-03-14T02:40:12;9.80;99.90
9466;DHT22;4771;48.726;9.006;2023-03-14T02:42:39;9.80;99.90
9466;DHT22;4771;48.726;9.006;2023-03-14T02:48:13;9.80;99.90
9466;DHT22;4771;48.726;9.006;2023-03-14T02:50:41;9.80;99.90
9466;DHT22;4771;48.726;9.006;2023-03-14T02:53:08;9.70;99.90
9466;DHT22;4771;48.726;9.006;2023-03-14T02:55:35;9.60;99.90
9466;DHT22;4771;48.726;9.006;2023-03-14T02:58:02;9.60;99.90
9466;DHT22;4771;48.726;9.006;2023-03-14T03:00:29;9.70;99.90
9466;DHT22;4771;48.726;9.006;2023-03-14T03:02:56;9.60;99.90
9466;DHT22;4771;48.726;9.006;2023-03-14T03:05:24;9.70;99.90
9466;DHT22;4771;48.726;9.006;2023-03-14T03:07:51;9.60;99.90
9466;DHT22;4771;48.726;9.006;2023-03-14T03:10:17;9.60;99.90
9466;DHT22;4771;48.726;9.006;2023-03-14T03:12:44;9.60;99.90
9466;DHT22;4771;48.726;9.006;2023-03-14T03:15:11;9.60;99.90
9466;DHT22;4771;48.726;9.006;2023-03-14T03:17:38;9.60;99.90
9466;DHT22;4771;48.726;9.006;2023-03-14T03:20:05;9.60;99.90
9466;DHT22;4771;48.726;9.006;2023-03-14T03:22:35;9.60;99.90
9466;DHT22;4771;48.726;9.006;2023-03-14T03:25:06;9.60;99.90
9466;DHT22;4771;48.726;9.006;2023-03-14T03:27:35;9.60;99.90
9466;DHT22;4771;48.726;9.006;2023-03-14T03:30:03;9.50;99.90
9466;DHT22;4771;48.726;9.006;2023-03-14T03:32:30;9.40;99.90
9466;DHT22;4771;48.726;9.006;2023-03-14T03:34:57;9.40;99.90
9466;DHT22;4771;48.726;9.006;2023-03-14T03:37:24;9.40;99.90
9466;DHT22;4771;48.726;9.006;2023-03-14T03:39:52;9.30;99.90
9466;DHT22;4771;48.726;9.006;2023-03-14T03:42:19;9.40;99.90
9466;DHT22;4771;48.726;9.006;2023-03-14T03:44:46;9.50;99.90
9466;DHT22;4771;48.726;9.006;2023-03-14T03:47:14;9.30;99.90
9466;DHT22;4771;48.726;9.006;2023-03-14T03:49:40;9.20;99.90
9466;DHT22;4771;48.726;9.006;2023-03-14T03:52:07;9.30;99.90
9466;DHT22;4771;48.726;9.006;2023-03-14T03:54:35;9.30;99.90
9466;DHT22;4771;48.726;9.006;2023-03-14T03:57:03;9.20;99.90
9466;DHT22;4771;48.726;9.006;2023-03-14T03:59:30;9.30;99.90
9466;DHT22;4771;48.726;9.006;2023-03-14T04:01:57;9.20;99.90
9466;DHT22;4771;48.726;9.006;2023-03-14T04:04:23;9.30;99.90
9466;DHT22;4771;48.726;9.006;2023-03-14T04:06:50;9.20;99.90
9466;DHT22;4771;48.726;9.006;2023-03-14T04:09:17;9.20;99.90
9466;DHT22;4771;48.726;9.006;2023-03-14T04:11:44;9.20;99.90
9466;DHT22;4771;48.726;9.006;2023-03-14T04:14:12;9.20;99.90
9466;DHT22;4771;48.726;9.006;2023-03-14T04:16:39;9.20;99.90
9466;DHT22;4771;48.726;9.006;2023-03-14T04:19:06;9.20;99.90
9466;DHT22;4771;48.726;9.006;2023-03-14T04:21:32;9.20;99.90
9466;DHT22;4771;48.726;9.006;2023-03-14T04:23:59;9.20;99.90
9466;DHT22;4771;48.726;9.006;2023-03-14T04:26:26;9.20;99.90
9466;DHT22;4771;48.726;9.006;2023-03-14T04:28:53;9.20;99.90
9466;DHT22;4771;48.726;9.006;2023-03-14T04:31:21;9.10;99.90
9466;DHT22;4771;48.726;9.006;2023-03-14T04:33:48;9.10;99.90
9466;DHT22;4771;48.726;9.006;2023-03-14T04:36:15;9.20;99.90
9466;DHT22;4771;48.726;9.006;2023-03-14T04:38:42;9.10;99.90
9466;DHT22;4771;48.726;9.006;2023-03-14T04:41:09;9.10;99.90
9466;DHT22;4771;48.726;9.006;2023-03-14T04:43:36;9.20;99.90
9466;DHT22;4771;48.726;9.006;2023-03-14T04:46:03;9.20;99.90
9466;DHT22;4771;48.726;9.006;2023-03-14T04:48:31;9.10;99.90
9466;DHT22;4771;48.726;9.006;2023-03-14T04:50:58;9.10;99.90
9466;DHT22;4771;48.726;9.006;2023-03-14T04:53:25;9.10;99.90
9466;DHT22;4771;48.726;9.006;2023-03-14T04:55:53;9.20;99.90
9466;DHT22;4771;48.726;9.006;2023-03-14T04:58:21;9.20;99.90
9466;DHT22;4771;48.726;9.006;2023-03-14T05:00:48;9.10;99.90
9466;DHT22;4771;48.726;9.006;2023-03-14T05:03:15;9.10;99.90
9466;DHT22;4771;48.726;9.006;2023-03-14T05:05:43;9.10;99.90
9466;DHT22;4771;48.726;9.006;2023-03-14T05:08:11;9.00;99.90
9466;DHT22;4771;48.726;9.006;2023-03-14T05:10:38;9.10;99.90
9466;DHT22;4771;48.726;9.006;2023-03-14T05:13:05;9.10;99.90
9466;DHT22;4771;48.726;9.006;2023-03-14T05:15:32;9.10;99.90
9466;DHT22;4771;48.726;9.006;2023-03-14T05:17:59;9.00;99.90
9466;DHT22;4771;48.726;9.006;2023-03-14T05:20:25;9.00;99.90
9466;DHT22;4771;48.726;9.006;2023-03-14T05:22:54;9.00;99.90
9466;DHT22;4771;48.726;9.006;2023-03-14T05:25:20;8.90;99.90
9466;DHT22;4771;48.726;9.006;2023-03-14T05:27:47;9.00;99.90
9466;DHT22;4771;48.726;9.006;2023-03-14T05:30:14;9.00;99.90
9466;DHT22;4771;48.726;9.006;2023-03-14T05:32:41;8.90;99.90
9466;DHT22;4771;48.726;9.006;2023-03-14T05:35:08;9.00;99.90
9466;DHT22;4771;48.726;9.006;2023-03-14T05:37:35;9.00;99.90
9466;DHT22;4771;48.726;9.006;2023-03-14T05:40:04;9.10;99.90
9466;DHT22;4771;48.726;9.006;2023-03-14T05:42:32;9.10;99.90
9466;DHT22;4771;48.726;9.006;2023-03-14T05:44:59;9.00;99.90
9466;DHT22;4771;48.726;9.006;2023-03-14T05:47:26;9.00;99.90
9466;DHT22;4771;48.726;9.006;2023-03-14T05:49:53;9.00;99.90
9466;DHT22;4771;48.726;9.006;2023-03-14T05:52:20;9.00;99.90
9466;DHT22;4771;48.726;9.006;2023-03-14T05:54:47;9.00;99.90
9466;DHT22;4771;48.726;9.006;2023-03-14T05:57:15;9.00;99.90
9466;DHT22;4771;48.726;9.006;2023-03-14T05:59:42;9.00;99.90
9466;DHT22;4771;48.726;9.006;2023-03-14T06:02:09;9.00;99.90
9466;DHT22;4771;48.726;9.006;2023-03-14T06:04:36;9.00;99.90
9466;DHT22;4771;48.726;9.006;2023-03-14T06:07:03;9.00;99.90
9466;DHT22;4771;48.726;9.006;2023-03-14T06:09:30;9.00;99.90
9466;DHT22;4771;48.726;9.006;2023-03-14T06:11:56;9.00;99.90
9466;DHT22;4771;48.726;9.006;2023-03-14T06:14:25;9.00;99.90
9466;DHT22;4771;48.726;9.006;2023-03-14T06:16:51;9.10;99.90
9466;DHT22;4771;48.726;9.006;2023-03-14T06:19:19;9.10;99.90
9466;DHT22;4771;48.726;9.006;2023-03-14T06:21:46;9.10;99.90
9466;DHT22;4771;48.726;9.006;2023-03-14T06:24:13;9.10;99.90
9466;DHT22;4771;48.726;9.006;2023-03-14T06:26:40;9.10;99.90
9466;DHT22;4771;48.726;9.006;2023-03-14T06:29:07;9.10;99.90
9466;DHT22;4771;48.726;9.006;2023-03-14T06:31:35;9.00;99.90
9466;DHT22;4771;48.726;9.006;2023-03-14T06:34:02;9.00;99.90
9466;DHT22;4771;48.726;9.006;2023-03-14T06:36:29;9.10;99.90
9466;DHT22;4771;48.726;9.006;2023-03-14T06:38:56;9.10;99.90
9466;DHT22;4771;48.726;9.006;2023-03-14T06:41:23;9.10;99.90
9466;DHT22;4771;48.726;9.006;2023-03-14T06:43:51;9.10;99.90
9466;DHT22;4771;48.726;9.006;2023-03-14T06:46:18;9.10;99.90
9466;DHT22;4771;48.726;9.006;2023-03-14T06:48:46;9.20;99.90
9466;DHT22;4771;48.726;9.006;2023-03-14T06:51:13;9.20;99.90
9466;DHT22;4771;48.726;9.006;2023-03-14T06:53:40;9.20;99.90
9466;DHT22;4771;48.726;9.006;2023-03-14T06:56:08;9.20;99.90
9466;DHT22;4771;48.726;9.006;2023-03-14T06:58:35;9.20;99.90
9466;DHT22;4771;48.726;9.006;2023-03-14T07:01:02;9.30;99.90
9466;DHT22;4771;48.726;9.006;2023-03-14T07:03:29;9.30;99.90
9466;DHT22;4771;48.726;9.006;2023-03-14T07:05:57;9.30;99.90
9466;DHT22;4771;48.726;9.006;2023-03-14T07:08:25;9.40;99.90
9466;DHT22;4771;48.726;9.006;2023-03-14T07:10:52;9.40;99.90
9466;DHT22;4771;48.726;9.006;2023-03-14T07:13:18;9.50;99.90
9466;DHT22;4771;48.726;9.006;2023-03-14T07:15:45;9.50;99.90
9466;DHT22;4771;48.726;9.006;2023-03-14T07:18:12;9.50;99.90
9466;DHT22;4771;48.726;9.006;2023-03-14T07:20:39;9.60;99.90
9466;DHT22;4771;48.726;9.006;2023-03-14T07:23:07;9.60;99.90
9466;DHT22;4771;48.726;9.006;2023-03-14T07:25:34;9.70;99.90
9466;DHT22;4771;48.726;9.006;2023-03-14T07:28:01;9.70;99.90
9466;DHT22;4771;48.726;9.006;2023-03-14T07:30:27;9.70;99.90
9466;DHT22;4771;48.726;9.006;2023-03-14T07:32:54;9.70;99.90
9466;DHT22;4771;48.726;9.006;2023-03-14T07:35:21;9.80;99.90
9466;DHT22;4771;48.726;9.006;2023-03-14T07:37:48;9.80;99.90
9466;DHT22;4771;48.726;9.006;2023-03-14T07:40:16;9.90;99.90
9466;DHT22;4771;48.726;9.006;2023-03-14T07:42:43;10.00;99.90
9466;DHT22;4771;48.726;9.006;2023-03-14T07:45:11;10.00;99.90
9466;DHT22;4771;48.726;9.006;2023-03-14T07:47:37;10.10;99.90
9466;DHT22;4771;48.726;9.006;2023-03-14T07:50:05;10.10;99.90
9466;DHT22;4771;48.726;9.006;2023-03-14T07:52:32;10.10;99.90
9466;DHT22;4771;48.726;9.006;2023-03-14T07:54:59;10.10;99.90
9466;DHT22;4771;48.726;9.006;2023-03-14T07:57:27;10.20;99.90
9466;DHT22;4771;48.726;9.006;2023-03-14T07:59:54;10.30;99.90
9466;DHT22;4771;48.726;9.006;2023-03-14T08:02:21;10.40;99.90
9466;DHT22;4771;48.726;9.006;2023-03-14T08:04:49;10.40;99.90
9466;DHT22;4771;48.726;9.006;2023-03-14T08:07:16;10.50;99.90
9466;DHT22;4771;48.726;9.006;2023-03-14T08:09:43;10.50;99.90
9466;DHT22;4771;48.726;9.006;2023-03-14T08:12:10;10.50;99.90
9466;DHT22;4771;48.726;9.006;2023-03-14T08:14:38;10.60;99.90
9466;DHT22;4771;48.726;9.006;2023-03-14T08:17:05;10.50;99.90
9466;DHT22;4771;48.726;9.006;2023-03-14T08:19:33;10.50;99.90
9466;DHT22;4771;48.726;9.006;2023-03-14T08:22:00;10.60;99.90
9466;DHT22;4771;48.726;9.006;2023-03-14T08:24:27;10.70;99.90
9466;DHT22;4771;48.726;9.006;2023-03-14T08:26:54;10.80;99.90
9466;DHT22;4771;48.726;9.006;2023-03-14T08:29:21;10.90;99.90
9466;DHT22;4771;48.726;9.006;2023-03-14T08:31:49;11.00;99.90
9466;DHT22;4771;48.726;9.006;2023-03-14T08:34:16;10.90;99.90
9466;DHT22;4771;48.726;9.006;2023-03-14T08:36:43;10.90;99.90
9466;DHT22;4771;48.726;9.006;2023-03-14T08:39:10;10.80;99.90
9466;DHT22;4771;48.726;9.006;2023-03-14T08:41:37;10.80;99.90
9466;DHT22;4771;48.726;9.006;2023-03-14T08:44:06;10.90;99.90
9466;DHT22;4771;48.726;9.006;2023-03-14T08:46:33;10.90;99.90
9466;DHT22;4771;48.726;9.006;2023-03-14T08:49:01;10.90;99.90
9466;DHT22;4771;48.726;9.006;2023-03-14T08:51:28;11.00;99.90
9466;DHT22;4771;48.726;9.006;2023-03-14T08:53:55;11.10;99.90
9466;DHT22;4771;48.726;9.006;2023-03-14T08:56:22;11.10;99.90
9466;DHT22;4771;48.726;9.006;2023-03-14T08:58:49;11.10;99.90
9466;DHT22;4771;48.726;9.006;2023-03-14T09:01:16;11.10;99.90
9466;DHT22;4771;48.726;9.006;2023-03-14T09:03:44;11.00;99.90
9466;DHT22;4771;48.726;9.006;2023-03-14T09:06:12;10.90;99.90
9466;DHT22;4771;48.726;9.006;2023-03-14T09:08:39;10.80;99.90
9466;DHT22;4771;48.726;9.006;2023-03-14T09:11:07;10.70;99.90
9466;DHT22;4771;48.726;9.006;2023-03-14T09:13:35;10.70;99.90
9466;DHT22;4771;48.726;9.006;2023-03-14T09:16:02;10.70;99.90
9466;DHT22;4771;48.726;9.006;2023-03-14T09:18:29;10.60;99.90
9466;DHT22;4771;48.726;9.006;2023-03-14T09:20:56;10.60;99.90
9466;DHT22;4771;48.726;9.006;2023-03-14T09:23:24;10.60;99.90
9466;DHT22;4771;48.726;9.006;2023-03-14T09:25:54;10.60;99.90
9466;DHT22;4771;48.726;9.006;2023-03-14T09:28:21;10.60;99.90
9466;DHT22;4771;48.726;9.006;2023-03-14T09:30:48;10.60;99.90
9466;DHT22;4771;48.726;9.006;2023-03-14T09:33:15;10.60;99.90
9466;DHT22;4771;48.726;9.006;2023-03-14T09:35:42;10.50;99.90
9466;DHT22;4771;48.726;9.006;2023-03-14T09:38:09;10.60;99.90
9466;DHT22;4771;48.726;9.006;2023-03-14T09:40:38;10.50;99.90
9466;DHT22;4771;48.726;9.006;2023-03-14T09:43:05;10.50;99.90
9466;DHT22;4771;48.726;9.006;2023-03-14T09:45:34;10.50;99.90
9466;DHT22;4771;48.726;9.006;2023-03-14T09:48:03;10.40;99.90
9466;DHT22;4771;48.726;9.006;2023-03-14T09:50:37;10.50;99.90
9466;DHT22;4771;48.726;9.006;2023-03-14T09:53:09;10.60;99.90
9466;DHT22;4771;48.726;9.006;2023-03-14T09:55:42;10.60;99.90
9466;DHT22;4771;48.726;9.006;2023-03-14T09:58:11;10.70;99.90
9466;DHT22;4771;48.726;9.006;2023-03-14T10:00:38;10.70;99.90
9466;DHT22;4771;48.726;9.006;2023-03-14T10:03:31;10.80;99.90
9466;DHT22;4771;48.726;9.006;2023-03-14T10:05:59;11.00;99.90
9466;DHT22;4771;48.726;9.006;2023-03-14T10:08:26;11.30;99.90
9466;DHT22;4771;48.726;9.006;2023-03-14T10:10:54;11.30;99.90
9466;DHT22;4771;48.726;9.006;2023-03-14T10:13:23;11.40;99.90
9466;DHT22;4771;48.726;9.006;2023-03-14T10:15:53;11.60;99.90
9466;DHT22;4771;48.726;9.006;2023-03-14T10:18:21;11.60;99.90
9466;DHT22;4771;48.726;9.006;2023-03-14T10:21:02;11.70;99.90
9466;DHT22;4771;48.726;9.006;2023-03-14T10:23:32;11.80;99.90
9466;DHT22;4771;48.726;9.006;2023-03-14T10:26:05;11.70;99.90
9466;DHT22;4771;48.726;9.006;2023-03-14T10:28:34;11.70;99.90
9466;DHT22;4771;48.726;9.006;2023-03-14T10:31:01;11.70;99.90
9466;DHT22;4771;48.726;9.006;2023-03-14T10:33:30;11.70;99.90
9466;DHT22;4771;48.726;9.006;2023-03-14T10:36:00;11.60;99.90
9466;DHT22;4771;48.726;9.006;2023-03-14T10:38:29;11.50;99.90
9466;DHT22;4771;48.726;9.006;2023-03-14T10:40:56;11.50;99.90
9466;DHT22;4771;48.726;9.006;2023-03-14T10:43:27;11.40;99.90
9466;DHT22;4771;48.726;9.006;2023-03-14T10:45:58;11.40;99.90
9466;DHT22;4771;48.726;9.006;2023-03-14T10:48:32;11.30;99.90
9466;DHT22;4771;48.726;9.006;2023-03-14T10:51:04;11.20;99.90
9466;DHT22;4771;48.726;9.006;2023-03-14T10:53:41;11.20;99.90
9466;DHT22;4771;48.726;9.006;2023-03-14T10:56:11;11.10;99.90
9466;DHT22;4771;48.726;9.006;2023-03-14T10:58:41;11.10;99.90
9466;DHT22;4771;48.726;9.006;2023-03-14T11:01:36;11.10;99.90
9466;DHT22;4771;48.726;9.006;2023-03-14T11:04:13;10.90;99.90
9466;DHT22;4771;48.726;9.006;2023-03-14T11:06:44;10.80;99.90
9466;DHT22;4771;48.726;9.006;2023-03-14T11:09:18;10.90;99.90
9466;DHT22;4771;48.726;9.006;2023-03-14T11:11:47;10.90;99.90
9466;DHT22;4771;48.726;9.006;2023-03-14T11:14:23;10.90;99.90
9466;DHT22;4771;48.726;9.006;2023-03-14T11:16:56;10.80;99.90
9466;DHT22;4771;48.726;9.006;2023-03-14T11:19:35;10.80;99.90
9466;DHT22;4771;48.726;9.006;2023-03-14T11:22:08;10.60;99.90
9466;DHT22;4771;48.726;9.006;2023-03-14T11:24:49;10.40;99.90
9466;DHT22;4771;48.726;9.006;2023-03-14T11:27:20;10.40;99.90
9466;DHT22;4771;48.726;9.006;2023-03-14T11:29:57;10.30;99.90
9466;DHT22;4771;48.726;9.006;2023-03-14T11:32:35;10.40;99.90
9466;DHT22;4771;48.726;9.006;2023-03-14T11:35:04;10.40;99.90
9466;DHT22;4771;48.726;9.006;2023-03-14T11:37:37;10.30;99.90
9466;DHT22;4771;48.726;9.006;2023-03-14T11:40:13;10.30;99.90
9466;DHT22;4771;48.726;9.006;2023-03-14T11:42:44;10.30;99.90
9466;DHT22;4771;48.726;9.006;2023-03-14T11:47:43;10.40;99.90
9466;DHT22;4771;48.726;9.006;2023-03-14T11:50:15;11.00;99.90
9466;DHT22;4771;48.726;9.006;2023-03-14T11:52:47;10.30;99.90
9466;DHT22;4771;48.726;9.006;2023-03-14T11:55:20;10.30;99.90
9466;DHT22;4771;48.726;9.006;2023-03-14T11:57:53;10.40;99.90
9466;DHT22;4771;48.726;9.006;2023-03-14T12:00:24;10.40;99.90
9466;DHT22;4771;48.726;9.006;2023-03-14T12:02:58;10.40;99.90
9466;DHT22;4771;48.726;9.006;2023-03-14T12:05:50;10.40;99.90
9466;DHT22;4771;48.726;9.006;2023-03-14T12:08:43;10.30;99.90
9466;DHT22;4771;48.726;9.006;2023-03-14T12:11:15;10.30;99.90
9466;DHT22;4771;48.726;9.006;2023-03-14T12:13:47;10.20;99.90
9466;DHT22;4771;48.726;9.006;2023-03-14T12:16:34;10.20;99.90
9466;DHT22;4771;48.726;9.006;2023-03-14T12:19:37;10.00;99.90
9466;DHT22;4771;48.726;9.006;2023-03-14T12:22:26;9.90;99.90
9466;DHT22;4771;48.726;9.006;2023-03-14T12:24:56;10.10;99.90
9466;DHT22;4771;48.726;9.006;2023-03-14T12:27:48;9.90;99.90
9466;DHT22;4771;48.726;9.006;2023-03-14T12:30:23;9.60;99.90
9466;DHT22;4771;48.726;9.006;2023-03-14T12:33:29;9.60;99.90
9466;DHT22;4771;48.726;9.006;2023-03-14T12:36:29;10.00;99.90
9466;DHT22;4771;48.726;9.006;2023-03-14T12:39:05;9.90;99.90
9466;DHT22;4771;48.726;9.006;2023-03-14T12:41:38;9.50;99.90
9466;DHT22;4771;48.726;9.006;2023-03-14T12:47:46;9.90;99.90
9466;DHT22;4771;48.726;9.006;2023-03-14T13:02:21;9.60;99.90
9466;DHT22;4771;48.726;9.006;2023-03-14T13:04:51;9.70;99.90
9466;DHT22;4771;48.726;9.006;2023-03-14T13:08:02;9.60;99.90
9466;DHT22;4771;48.726;9.006;2023-03-14T13:10:39;9.70;99.90
9466;DHT22;4771;48.726;9.006;2023-03-14T13:13:17;9.80;99.90
9466;DHT22;4771;48.726;9.006;2023-03-14T13:15:47;9.80;99.90
9466;DHT22;4771;48.726;9.006;2023-03-14T13:18:18;9.90;99.90
9466;DHT22;4771;48.726;9.006;2023-03-14T13:20:51;9.70;99.90
9466;DHT22;4771;48.726;9.006;2023-03-14T13:23:23;9.70;99.90
9466;DHT22;4771;48.726;9.006;2023-03-14T13:25:52;9.50;99.90
9466;DHT22;4771;48.726;9.006;2023-03-14T13:28:19;9.60;99.90
9466;DHT22;4771;48.726;9.006;2023-03-14T13:30:48;9.40;99.90
9466;DHT22;4771;48.726;9.006;2023-03-14T13:33:17;9.20;97.90
9466;DHT22;4771;48.726;9.006;2023-03-14T13:35:46;8.90;99.30
9466;DHT22;4771;48.726;9.006;2023-03-14T13:38:17;8.80;99.70
9466;DHT22;4771;48.726;9.006;2023-03-14T13:40:45;8.80;99.90
9466;DHT22;4771;48.726;9.006;2023-03-14T13:43:17;8.70;99.90
9466;DHT22;4771;48.726;9.006;2023-03-14T13:45:50;8.50;98.30
9466;DHT22;4771;48.726;9.006;2023-03-14T13:48:18;8.50;99.90
9466;DHT22;4771;48.726;9.006;2023-03-14T13:50:50;8.60;99.60
9466;DHT22;4771;48.726;9.006;2023-03-14T13:53:17;8.30;96.70
9466;DHT22;4771;48.726;9.006;2023-03-14T13:55:44;8.40;98.00
9466;DHT22;4771;48.726;9.006;2023-03-14T13:58:25;8.40;94.80
9466;DHT22;4771;48.726;9.006;2023-03-14T14:01:11;8.40;95.40
9466;DHT22;4771;48.726;9.006;2023-03-14T14:03:41;8.40;92.80
9466;DHT22;4771;48.726;9.006;2023-03-14T14:06:16;8.40;92.90
9466;DHT22;4771;48.726;9.006;2023-03-14T14:08:46;8.40;84.30
9466;DHT22;4771;48.726;9.006;2023-03-14T14:11:20;8.30;81.30
9466;DHT22;4771;48.726;9.006;2023-03-14T14:13:49;8.30;85.10
9466;DHT22;4771;48.726;9.006;2023-03-14T14:16:20;8.30;91.20
9466;DHT22;4771;48.726;9.006;2023-03-14T14:18:48;8.50;92.10
9466;DHT22;4771;48.726;9.006;2023-03-14T14:21:15;8.40;85.80
9466;DHT22;4771;48.726;9.006;2023-03-14T14:23:43;8.30;86.10
9466;DHT22;4771;48.726;9.006;2023-03-14T14:26:17;8.20;89.70
9466;DHT22;4771;48.726;9.006;2023-03-14T14:28:45;8.20;89.50
9466;DHT22;4771;48.726;9.006;2023-03-14T14:31:20;8.00;88.60
9466;DHT22;4771;48.726;9.006;2023-03-14T14:33:54;8.00;86.40
9466;DHT22;4771;48.726;9.006;2023-03-14T14:36:24;7.90;89.80
9466;DHT22;4771;48.726;9.006;2023-03-14T14:38:58;7.90;90.70
9466;DHT22;4771;48.726;9.006;2023-03-14T14:41:30;8.00;91.80
9466;DHT22;4771;48.726;9.006;2023-03-14T14:43:58;8.00;92.70
9466;DHT22;4771;48.726;9.006;2023-03-14T14:46:30;8.00;92.10
9466;DHT22;4771;48.726;9.006;2023-03-14T14:48:58;7.90;92.00
9466;DHT22;4771;48.726;9.006;2023-03-14T14:51:33;7.90;92.10
9466;DHT22;4771;48.726;9.006;2023-03-14T14:54:10;7.90;92.30
9466;DHT22;4771;48.726;9.006;2023-03-14T14:56:38;8.00;90.30
9466;DHT22;4771;48.726;9.006;2023-03-14T14:59:06;8.00;90.00
9466;DHT22;4771;48.726;9.006;2023-03-14T15:01:37;8.10;90.80
9466;DHT22;4771;48.726;9.006;2023-03-14T15:04:14;8.20;91.10
9466;DHT22;4771;48.726;9.006;2023-03-14T15:06:43;8.30;91.20
9466;DHT22;4771;48.726;9.006;2023-03-14T15:09:11;8.30;90.20
9466;DHT22;4771;48.726;9.006;2023-03-14T15:11:38;8.40;91.60
9466;DHT22;4771;48.726;9.006;2023-03-14T15:14:05;8.30;89.30
9466;DHT22;4771;48.726;9.006;2023-03-14T15:16:33;8.30;89.70
9466;DHT22;4771;48.726;9.006;2023-03-14T15:19:03;8.30;91.20
9466;DHT22;4771;48.726;9.006;2023-03-14T15:21:32;8.70;90.90
9466;DHT22;4771;48.726;9.006;2023-03-14T15:23:59;8.60;90.60
9466;DHT22;4771;48.726;9.006;2023-03-14T15:26:27;8.70;89.20
9466;DHT22;4771;48.726;9.006;2023-03-14T15:28:54;8.80;91.10
9466;DHT22;4771;48.726;9.006;2023-03-14T15:31:21;8.60;87.80
9466;DHT22;4771;48.726;9.006;2023-03-14T15:33:49;8.50;88.70
9466;DHT22;4771;48.726;9.006;2023-03-14T15:36:21;8.60;90.70
9466;DHT22;4771;48.726;9.006;2023-03-14T15:38:49;8.50;90.40
9466;DHT22;4771;48.726;9.006;2023-03-14T15:41:16;8.50;91.60
9466;DHT22;4771;48.726;9.006;2023-03-14T15:43:43;8.50;92.60
9466;DHT22;4771;48.726;9.006;2023-03-14T15:46:11;8.40;90.50
9466;DHT22;4771;48.726;9.006;2023-03-14T15:48:38;8.20;90.10
9466;DHT22;4771;48.726;9.006;2023-03-14T15:51:05;8.30;90.90
9466;DHT22;4771;48.726;9.006;2023-03-14T15:53:33;8.10;90.60
9466;DHT22;4771;48.726;9.006;2023-03-14T15:56:02;8.00;91.80
9466;DHT22;4771;48.726;9.006;2023-03-14T15:58:29;8.00;91.50
9466;DHT22;4771;48.726;9.006;2023-03-14T16:00:59;8.00;92.50
9466;DHT22;4771;48.726;9.006;2023-03-14T16:03:27;8.00;93.60
9466;DHT22;4771;48.726;9.006;2023-03-14T16:05:54;7.90;94.60
9466;DHT22;4771;48.726;9.006;2023-03-14T16:08:21;8.00;94.40
9466;DHT22;4771;48.726;9.006;2023-03-14T16:10:49;7.80;94.50
9466;DHT22;4771;48.726;9.006;2023-03-14T16:13:16;7.90;94.30
9466;DHT22;4771;48.726;9.006;2023-03-14T16:15:52;7.90;94.20
9466;DHT22;4771;48.726;9.006;2023-03-14T16:18:19;8.00;94.20
9466;DHT22;4771;48.726;9.006;2023-03-14T16:20:54;8.00;96.20
9466;DHT22;4771;48.726;9.006;2023-03-14T16:23:22;8.10;95.90
9466;DHT22;4771;48.726;9.006;2023-03-14T16:25:51;8.10;93.60
9466;DHT22;4771;48.726;9.006;2023-03-14T16:28:18;7.90;94.40
9466;DHT22;4771;48.726;9.006;2023-03-14T16:30:45;8.00;95.30
9466;DHT22;4771;48.726;9.006;2023-03-14T16:33:13;7.90;95.20
9466;DHT22;4771;48.726;9.006;2023-03-14T16:35:40;8.00;95.90
9466;DHT22;4771;48.726;9.006;2023-03-14T16:38:07;7.90;95.10
9466;DHT22;4771;48.726;9.006;2023-03-14T16:40:34;7.90;94.00
9466;DHT22;4771;48.726;9.006;2023-03-14T16:43:02;8.70;96.10
9466;DHT22;4771;48.726;9.006;2023-03-14T16:45:29;8.00;97.70
9466;DHT22;4771;48.726;9.006;2023-03-14T16:47:56;7.90;95.90